sensor_id;sensor_type;location;lat;lon;timestamp;pressure;altitude;pressure_sealevel;temperature;humidity
10716;BME280;5409;42.620;23.316;2024-02-21T00:00:01;92930.31;;;3.25;77.15
10716;BME280;5409;42.620;23.316;2024-02-21T00:02:27;92929.38;;;3.20;77.76
10716;BME280;5409;42.620;23.316;2024-02-21T00:04:52;92932.19;;;3.18;77.71
10716;BME280;5409;42.620;23.316;2024-02-21T00:07:17;92924.34;;;3.13;77.75
10716;BME280;5409;42.620;23.316;2024-02-21T00:09:43;92922.78;;;3.12;78.41
10716;BME280;5409;42.620;23.316;2024-02-21T00:12:08;92927.91;;;3.12;78.30
10716;BME280;5409;42.620;23.316;2024-02-21T00:14:34;92922.84;;;3.05;78.26
10716;BME280;5409;42.620;23.316;2024-02-21T00:16:59;92920.84;;;3.08;78.35
10716;BME280;5409;42.620;23.316;2024-02-21T00:19:24;92905.66;;;2.94;78.31
10716;BME280;5409;42.620;23.316;2024-02-21T00:21:50;92903.59;;;3.03;78.26
10716;BME280;5409;42.620;23.316;2024-02-21T00:24:15;92917.59;;;3.19;78.02
10716;BME280;5409;42.620;23.316;2024-02-21T00:26:41;92905.94;;;3.04;78.69
10716;BME280;5409;42.620;23.316;2024-02-21T00:29:06;92913.31;;;3.13;78.02
10716;BME280;5409;42.620;23.316;2024-02-21T00:31:32;92906.00;;;3.16;78.17
10716;BME280;5409;42.620;23.316;2024-02-21T00:33:57;92896.25;;;3.06;77.69
10716;BME280;5409;42.620;23.316;2024-02-21T00:36:23;92908.91;;;3.20;77.71
10716;BME280;5409;42.620;23.316;2024-02-21T00:38:49;92911.13;;;3.16;77.74
10716;BME280;5409;42.620;23.316;2024-02-21T00:41:14;92909.00;;;3.13;77.71
10716;BME280;5409;42.620;23.316;2024-02-21T00:43:39;92909.00;;;3.13;78.09
10716;BME280;5409;42.620;23.316;2024-02-21T00:46:05;92901.38;;;3.06;77.84
10716;BME280;5409;42.620;23.316;2024-02-21T00:48:31;92907.88;;;3.09;78.26
10716;BME280;5409;42.620;23.316;2024-02-21T00:50:56;92906.22;;;3.15;78.32
10716;BME280;5409;42.620;23.316;2024-02-21T00:53:22;92905.78;;;3.18;78.09
10716;BME280;5409;42.620;23.316;2024-02-21T00:55:47;92904.56;;;3.20;77.84
10716;BME280;5409;42.620;23.316;2024-02-21T00:58:12;92907.06;;;3.27;77.18
10716;BME280;5409;42.620;23.316;2024-02-21T01:00:38;92894.91;;;3.22;77.24
10716;BME280;5409;42.620;23.316;2024-02-21T01:03:03;92898.41;;;3.28;77.44
10716;BME280;5409;42.620;23.316;2024-02-21T01:05:28;92891.38;;;3.23;77.28
10716;BME280;5409;42.620;23.316;2024-02-21T01:07:54;92870.97;;;3.17;77.75
10716;BME280;5409;42.620;23.316;2024-02-21T01:10:19;92880.38;;;3.34;77.55
10716;BME280;5409;42.620;23.316;2024-02-21T01:12:45;92865.41;;;3.20;77.96
10716;BME280;5409;42.620;23.316;2024-02-21T01:15:10;92875.88;;;3.18;78.72
10716;BME280;5409;42.620;23.316;2024-02-21T01:17:37;92882.91;;;3.23;78.02
10716;BME280;5409;42.620;23.316;2024-02-21T01:20:03;92882.69;;;3.24;76.24
10716;BME280;5409;42.620;23.316;2024-02-21T01:22:30;92884.03;;;3.27;75.93
10716;BME280;5409;42.620;23.316;2024-02-21T01:24:56;92871.69;;;3.24;75.33
10716;BME280;5409;42.620;23.316;2024-02-21T01:27:21;92859.72;;;3.18;75.66
10716;BME280;5409;42.620;23.316;2024-02-21T01:29:46;92861.31;;;3.19;75.57
10716;BME280;5409;42.620;23.316;2024-02-21T01:32:14;92872.09;;;3.21;75.93
10716;BME280;5409;42.620;23.316;2024-02-21T01:34:40;92866.47;;;3.12;76.44
10716;BME280;5409;42.620;23.316;2024-02-21T01:37:05;92873.56;;;3.10;76.73
10716;BME280;5409;42.620;23.316;2024-02-21T01:39:32;92870.47;;;3.08;76.39
10716;BME280;5409;42.620;23.316;2024-02-21T01:41:58;92867.31;;;3.06;76.81
10716;BME280;5409;42.620;23.316;2024-02-21T01:44:24;92870.13;;;3.04;77.30
10716;BME280;5409;42.620;23.316;2024-02-21T01:46:49;92862.84;;;3.01;76.90
10716;BME280;5409;42.620;23.316;2024-02-21T01:49:16;92868.25;;;2.93;77.50
10716;BME280;5409;42.620;23.316;2024-02-21T01:51:42;92857.19;;;2.99;76.32
10716;BME280;5409;42.620;23.316;2024-02-21T01:54:08;92844.88;;;2.90;76.63
10716;BME280;5409;42.620;23.316;2024-02-21T01:56:33;92855.03;;;2.96;76.50
10716;BME280;5409;42.620;23.316;2024-02-21T01:58:59;92865.06;;;2.98;76.89
10716;BME280;5409;42.620;23.316;2024-02-21T02:01:24;92841.59;;;2.83;76.49
10716;BME280;5409;42.620;23.316;2024-02-21T02:03:50;92868.41;;;2.98;76.53
10716;BME280;5409;42.620;23.316;2024-02-21T02:06:16;92864.28;;;2.97;76.49
10716;BME280;5409;42.620;23.316;2024-02-21T02:08:41;92850.91;;;2.95;75.50
10716;BME280;5409;42.620;23.316;2024-02-21T02:11:07;92856.16;;;3.00;75.00
10716;BME280;5409;42.620;23.316;2024-02-21T02:13:32;92861.66;;;3.04;75.38
10716;BME280;5409;42.620;23.316;2024-02-21T02:15:58;92841.84;;;2.99;74.85
10716;BME280;5409;42.620;23.316;2024-02-21T02:18:23;92857.88;;;3.06;74.91
10716;BME280;5409;42.620;23.316;2024-02-21T02:20:49;92850.41;;;3.05;74.21
10716;BME280;5409;42.620;23.316;2024-02-21T02:23:23;92844.94;;;3.01;74.80
10716;BME280;5409;42.620;23.316;2024-02-21T02:25:49;92861.38;;;3.12;75.06
10716;BME280;5409;42.620;23.316;2024-02-21T02:28:17;92856.69;;;3.09;75.26
10716;BME280;5409;42.620;23.316;2024-02-21T02:30:43;92848.78;;;3.11;75.18
10716;BME280;5409;42.620;23.316;2024-02-21T02:33:09;92842.53;;;3.06;75.28
10716;BME280;5409;42.620;23.316;2024-02-21T02:35:35;92835.50;;;3.02;75.42
10716;BME280;5409;42.620;23.316;2024-02-21T02:38:05;92822.06;;;2.88;75.11
10716;BME280;5409;42.620;23.316;2024-02-21T02:40:34;92841.84;;;2.99;74.88
10716;BME280;5409;42.620;23.316;2024-02-21T02:43:00;92842.25;;;2.96;75.08
10716;BME280;5409;42.620;23.316;2024-02-21T02:45:25;92835.84;;;2.87;75.78
10716;BME280;5409;42.620;23.316;2024-02-21T02:47:54;92842.25;;;2.96;75.38
10716;BME280;5409;42.620;23.316;2024-02-21T02:50:20;92843.66;;;2.92;75.02
10716;BME280;5409;42.620;23.316;2024-02-21T02:52:46;92833.88;;;2.89;75.61
10716;BME280;5409;42.620;23.316;2024-02-21T02:55:11;92840.66;;;2.95;75.48
10716;BME280;5409;42.620;23.316;2024-02-21T02:57:37;92836.44;;;2.89;75.15
10716;BME280;5409;42.620;23.316;2024-02-21T03:00:03;92854.47;;;2.94;75.07
10716;BME280;5409;42.620;23.316;2024-02-21T03:02:29;92822.22;;;2.75;75.70
10716;BME280;5409;42.620;23.316;2024-02-21T03:04:55;92854.03;;;2.97;74.91
10716;BME280;5409;42.620;23.316;2024-02-21T03:07:20;92850.50;;;2.98;74.93
10716;BME280;5409;42.620;23.316;2024-02-21T03:09:46;92849.84;;;3.03;74.88
10716;BME280;5409;42.620;23.316;2024-02-21T03:12:11;92841.03;;;2.99;75.18
10716;BME280;5409;42.620;23.316;2024-02-21T03:14:37;92838.69;;;2.97;75.56
10716;BME280;5409;42.620;23.316;2024-02-21T03:17:02;92865.34;;;3.08;75.30
10716;BME280;5409;42.620;23.316;2024-02-21T03:19:28;92854.31;;;3.08;75.36
10716;BME280;5409;42.620;23.316;2024-02-21T03:21:54;92866.13;;;3.09;74.47
10716;BME280;5409;42.620;23.316;2024-02-21T03:24:20;92860.63;;;3.05;74.52
10716;BME280;5409;42.620;23.316;2024-02-21T03:26:46;92867.47;;;3.11;74.03
10716;BME280;5409;42.620;23.316;2024-02-21T03:29:16;92867.25;;;3.13;74.31
10716;BME280;5409;42.620;23.316;2024-02-21T03:31:42;92869.38;;;3.16;74.12
10716;BME280;5409;42.620;23.316;2024-02-21T03:34:10;92873.16;;;3.13;73.68
10716;BME280;5409;42.620;23.316;2024-02-21T03:36:36;92872.38;;;3.13;73.38
10716;BME280;5409;42.620;23.316;2024-02-21T03:39:01;92865.84;;;2.98;74.43
10716;BME280;5409;42.620;23.316;2024-02-21T03:41:27;92871.47;;;3.07;73.68
10716;BME280;5409;42.620;23.316;2024-02-21T03:43:52;92871.47;;;3.07;73.01
10716;BME280;5409;42.620;23.316;2024-02-21T03:46:17;92825.56;;;2.76;73.10
10716;BME280;5409;42.620;23.316;2024-02-21T03:48:43;92876.00;;;3.05;73.30
10716;BME280;5409;42.620;23.316;2024-02-21T03:51:08;92871.25;;;3.09;73.09
10716;BME280;5409;42.620;23.316;2024-02-21T03:53:34;92886.16;;;3.12;73.01
10716;BME280;5409;42.620;23.316;2024-02-21T03:56:02;92846.66;;;2.89;72.62
10716;BME280;5409;42.620;23.316;2024-02-21T03:58:29;92865.84;;;2.98;72.62
10716;BME280;5409;42.620;23.316;2024-02-21T04:00:55;92876.09;;;2.98;72.90
10716;BME280;5409;42.620;23.316;2024-02-21T04:03:20;92882.97;;;2.98;73.19
10716;BME280;5409;42.620;23.316;2024-02-21T04:05:46;92872.78;;;2.91;74.01
10716;BME280;5409;42.620;23.316;2024-02-21T04:08:11;92858.19;;;2.80;74.04
10716;BME280;5409;42.620;23.316;2024-02-21T04:10:37;92881.59;;;2.95;73.85
10716;BME280;5409;42.620;23.316;2024-02-21T04:13:03;92841.94;;;2.68;74.42
10716;BME280;5409;42.620;23.316;2024-02-21T04:15:29;92866.84;;;2.79;74.47
10716;BME280;5409;42.620;23.316;2024-02-21T04:17:54;92861.84;;;2.66;75.48
10716;BME280;5409;42.620;23.316;2024-02-21T04:20:19;92868.03;;;2.77;75.45
10716;BME280;5409;42.620;23.316;2024-02-21T04:22:45;92872.00;;;2.73;74.76
10716;BME280;5409;42.620;23.316;2024-02-21T04:25:11;92874.34;;;2.74;75.38
10716;BME280;5409;42.620;23.316;2024-02-21T04:27:38;92861.13;;;2.59;75.58
10716;BME280;5409;42.620;23.316;2024-02-21T04:30:04;92873.75;;;2.54;76.11
10716;BME280;5409;42.620;23.316;2024-02-21T04:32:29;92863.19;;;2.50;75.45
10716;BME280;5409;42.620;23.316;2024-02-21T04:34:55;92878.38;;;2.63;75.49
10716;BME280;5409;42.620;23.316;2024-02-21T04:37:20;92860.81;;;2.49;75.48
10716;BME280;5409;42.620;23.316;2024-02-21T04:39:46;92851.13;;;2.33;76.05
10716;BME280;5409;42.620;23.316;2024-02-21T04:42:11;92876.00;;;2.44;76.88
10716;BME280;5409;42.620;23.316;2024-02-21T04:44:37;92850.09;;;2.15;76.74
10716;BME280;5409;42.620;23.316;2024-02-21T04:47:03;92864.47;;;2.35;76.28
10716;BME280;5409;42.620;23.316;2024-02-21T04:49:29;92863.75;;;2.28;76.39
10716;BME280;5409;42.620;23.316;2024-02-21T04:51:55;92862.03;;;2.22;76.42
10716;BME280;5409;42.620;23.316;2024-02-21T04:54:20;92877.94;;;2.24;76.42
10716;BME280;5409;42.620;23.316;2024-02-21T04:56:45;92873.69;;;2.17;76.50
10716;BME280;5409;42.620;23.316;2024-02-21T04:59:11;92879.53;;;2.18;77.07
10716;BME280;5409;42.620;23.316;2024-02-21T05:01:36;92878.81;;;2.11;77.33
10716;BME280;5409;42.620;23.316;2024-02-21T05:04:01;92873.34;;;2.07;77.11
10716;BME280;5409;42.620;23.316;2024-02-21T05:06:28;92867.59;;;1.87;77.93
10716;BME280;5409;42.620;23.316;2024-02-21T05:08:53;92882.56;;;1.84;78.25
10716;BME280;5409;42.620;23.316;2024-02-21T05:11:23;92891.25;;;1.69;77.61
10716;BME280;5409;42.620;23.316;2024-02-21T05:13:48;92889.91;;;1.67;77.29
10716;BME280;5409;42.620;23.316;2024-02-21T05:16:14;92892.81;;;1.70;78.04
10716;BME280;5409;42.620;23.316;2024-02-21T05:18:40;92886.41;;;1.61;77.22
10716;BME280;5409;42.620;23.316;2024-02-21T05:21:06;92842.38;;;1.35;77.24
10716;BME280;5409;42.620;23.316;2024-02-21T05:23:31;92890.66;;;1.74;76.65
10716;BME280;5409;42.620;23.316;2024-02-21T05:25:57;92879.50;;;1.68;77.36
10716;BME280;5409;42.620;23.316;2024-02-21T05:28:22;92890.06;;;1.79;77.31
10716;BME280;5409;42.620;23.316;2024-02-21T05:30:47;92893.59;;;1.78;76.75
10716;BME280;5409;42.620;23.316;2024-02-21T05:33:13;92895.53;;;1.75;76.91
10716;BME280;5409;42.620;23.316;2024-02-21T05:35:46;92877.13;;;1.73;78.14
10716;BME280;5409;42.620;23.316;2024-02-21T05:38:11;92891.97;;;1.83;77.20
10716;BME280;5409;42.620;23.316;2024-02-21T05:40:37;92894.28;;;1.91;77.08
10716;BME280;5409;42.620;23.316;2024-02-21T05:43:02;92896.66;;;1.86;77.18
10716;BME280;5409;42.620;23.316;2024-02-21T05:45:28;92866.78;;;1.93;76.60
10716;BME280;5409;42.620;23.316;2024-02-21T05:47:53;92885.13;;;2.08;76.90
10716;BME280;5409;42.620;23.316;2024-02-21T05:50:18;92888.63;;;2.14;76.12
10716;BME280;5409;42.620;23.316;2024-02-21T05:52:44;92891.28;;;2.26;76.59
10716;BME280;5409;42.620;23.316;2024-02-21T05:55:09;92892.59;;;2.35;76.44
10716;BME280;5409;42.620;23.316;2024-02-21T05:57:35;92888.44;;;2.40;75.87
10716;BME280;5409;42.620;23.316;2024-02-21T06:00:03;92895.63;;;2.50;75.81
10716;BME280;5409;42.620;23.316;2024-02-21T06:02:30;92899.84;;;2.62;76.03
10716;BME280;5409;42.620;23.316;2024-02-21T06:04:55;92883.44;;;2.70;75.41
10716;BME280;5409;42.620;23.316;2024-02-21T06:07:21;92896.59;;;2.92;74.99
10716;BME280;5409;42.620;23.316;2024-02-21T06:09:46;92906.16;;;3.03;74.51
10716;BME280;5409;42.620;23.316;2024-02-21T06:12:11;92885.09;;;3.01;74.22
10716;BME280;5409;42.620;23.316;2024-02-21T06:14:37;92917.88;;;3.29;73.26
10716;BME280;5409;42.620;23.316;2024-02-21T06:17:02;92926.13;;;3.31;73.92
10716;BME280;5409;42.620;23.316;2024-02-21T06:19:28;92917.72;;;3.42;72.86
10716;BME280;5409;42.620;23.316;2024-02-21T06:21:53;92914.88;;;3.50;72.51
10716;BME280;5409;42.620;23.316;2024-02-21T06:24:18;92912.88;;;3.52;73.01
10716;BME280;5409;42.620;23.316;2024-02-21T06:26:44;92919.41;;;3.66;72.90
10716;BME280;5409;42.620;23.316;2024-02-21T06:29:10;92917.78;;;3.72;71.56
10716;BME280;5409;42.620;23.316;2024-02-21T06:31:36;92923.25;;;3.75;72.03
10716;BME280;5409;42.620;23.316;2024-02-21T06:34:01;92924.69;;;3.83;71.65
10716;BME280;5409;42.620;23.316;2024-02-21T06:36:27;92938.81;;;3.92;70.83
10716;BME280;5409;42.620;23.316;2024-02-21T06:38:52;92937.72;;;4.00;70.89
10716;BME280;5409;42.620;23.316;2024-02-21T06:41:18;92924.31;;;3.98;70.58
10716;BME280;5409;42.620;23.316;2024-02-21T06:43:47;92937.75;;;4.11;70.07
10716;BME280;5409;42.620;23.316;2024-02-21T06:46:24;92936.44;;;4.20;71.05
10716;BME280;5409;42.620;23.316;2024-02-21T06:48:50;92942.03;;;4.29;69.99
10716;BME280;5409;42.620;23.316;2024-02-21T06:51:15;92949.72;;;4.29;70.84
10716;BME280;5409;42.620;23.316;2024-02-21T06:53:41;92947.47;;;4.21;70.76
10716;BME280;5409;42.620;23.316;2024-02-21T06:56:06;92952.16;;;4.24;70.68
10716;BME280;5409;42.620;23.316;2024-02-21T06:58:32;92957.22;;;4.30;71.02
10716;BME280;5409;42.620;23.316;2024-02-21T07:00:57;92943.44;;;4.13;70.38
10716;BME280;5409;42.620;23.316;2024-02-21T07:03:22;92951.97;;;4.07;72.12
10716;BME280;5409;42.620;23.316;2024-02-21T07:05:49;92953.88;;;4.12;71.87
10716;BME280;5409;42.620;23.316;2024-02-21T07:08:15;92954.94;;;4.22;71.28
10716;BME280;5409;42.620;23.316;2024-02-21T07:10:40;92943.72;;;4.35;72.06
10716;BME280;5409;42.620;23.316;2024-02-21T07:13:06;92939.28;;;4.42;71.02
10716;BME280;5409;42.620;23.316;2024-02-21T07:15:31;92941.09;;;4.53;70.88
10716;BME280;5409;42.620;23.316;2024-02-21T07:17:58;92952.13;;;4.54;70.72
10716;BME280;5409;42.620;23.316;2024-02-21T07:20:23;92941.97;;;4.47;70.22
10716;BME280;5409;42.620;23.316;2024-02-21T07:22:48;92958.03;;;4.54;70.24
10716;BME280;5409;42.620;23.316;2024-02-21T07:25:14;92962.06;;;4.50;70.40
10716;BME280;5409;42.620;23.316;2024-02-21T07:27:39;92949.09;;;4.45;70.95
10716;BME280;5409;42.620;23.316;2024-02-21T07:30:06;92958.47;;;4.51;70.79
10716;BME280;5409;42.620;23.316;2024-02-21T07:32:31;92956.94;;;4.50;70.75
10716;BME280;5409;42.620;23.316;2024-02-21T07:34:56;92964.03;;;4.48;71.48
10716;BME280;5409;42.620;23.316;2024-02-21T07:37:22;92965.25;;;4.46;70.77
10716;BME280;5409;42.620;23.316;2024-02-21T07:39:47;92961.81;;;4.40;70.30
10716;BME280;5409;42.620;23.316;2024-02-21T07:42:12;92957.69;;;4.51;71.40
10716;BME280;5409;42.620;23.316;2024-02-21T07:44:38;92963.28;;;4.59;70.18
10716;BME280;5409;42.620;23.316;2024-02-21T07:47:03;92951.13;;;4.66;70.06
10716;BME280;5409;42.620;23.316;2024-02-21T07:49:29;92959.84;;;4.77;69.93
10716;BME280;5409;42.620;23.316;2024-02-21T07:51:54;92964.75;;;4.67;69.18
10716;BME280;5409;42.620;23.316;2024-02-21T07:54:19;92957.84;;;4.67;70.39
10716;BME280;5409;42.620;23.316;2024-02-21T07:56:45;92954.41;;;4.73;69.42
10716;BME280;5409;42.620;23.316;2024-02-21T07:59:10;92959.09;;;4.88;70.36
10716;BME280;5409;42.620;23.316;2024-02-21T08:01:36;92958.78;;;5.08;69.63
10716;BME280;5409;42.620;23.316;2024-02-21T08:04:01;92948.94;;;5.05;68.36
10716;BME280;5409;42.620;23.316;2024-02-21T08:06:27;92950.16;;;5.02;68.81
10716;BME280;5409;42.620;23.316;2024-02-21T08:08:53;92952.28;;;5.05;68.26
10716;BME280;5409;42.620;23.316;2024-02-21T08:11:18;92960.19;;;5.15;67.54
10716;BME280;5409;42.620;23.316;2024-02-21T08:13:44;92960.75;;;5.29;68.06
10716;BME280;5409;42.620;23.316;2024-02-21T08:16:09;92954.03;;;5.28;67.96
10716;BME280;5409;42.620;23.316;2024-02-21T08:18:34;92965.63;;;5.42;67.16
10716;BME280;5409;42.620;23.316;2024-02-21T08:21:03;92949.22;;;5.43;65.89
10716;BME280;5409;42.620;23.316;2024-02-21T08:23:29;92951.78;;;5.43;67.02
10716;BME280;5409;42.620;23.316;2024-02-21T08:25:54;92959.28;;;5.56;67.05
10716;BME280;5409;42.620;23.316;2024-02-21T08:28:19;92957.44;;;5.80;65.66
10716;BME280;5409;42.620;23.316;2024-02-21T08:30:45;92943.19;;;6.01;65.33
10716;BME280;5409;42.620;23.316;2024-02-21T08:33:14;92938.41;;;6.21;64.28
10716;BME280;5409;42.620;23.316;2024-02-21T08:35:39;92959.94;;;6.32;63.36
10716;BME280;5409;42.620;23.316;2024-02-21T08:38:05;92943.50;;;6.33;62.82
10716;BME280;5409;42.620;23.316;2024-02-21T08:40:30;92956.31;;;6.44;60.09
10716;BME280;5409;42.620;23.316;2024-02-21T08:42:56;92951.84;;;6.40;60.09
10716;BME280;5409;42.620;23.316;2024-02-21T08:45:21;92944.09;;;6.51;58.97
10716;BME280;5409;42.620;23.316;2024-02-21T08:47:46;92942.53;;;6.67;58.37
10716;BME280;5409;42.620;23.316;2024-02-21T08:50:12;92945.97;;;6.73;58.33
10716;BME280;5409;42.620;23.316;2024-02-21T08:52:37;92945.75;;;6.91;57.85
10716;BME280;5409;42.620;23.316;2024-02-21T08:55:03;92950.88;;;6.91;57.23
10716;BME280;5409;42.620;23.316;2024-02-21T08:57:29;92926.47;;;6.60;56.70
10716;BME280;5409;42.620;23.316;2024-02-21T08:59:54;92961.19;;;6.58;58.03
10716;BME280;5409;42.620;23.316;2024-02-21T09:02:20;92953.75;;;6.61;58.54
10716;BME280;5409;42.620;23.316;2024-02-21T09:04:45;92950.66;;;6.76;58.39
10716;BME280;5409;42.620;23.316;2024-02-21T09:07:11;92946.13;;;6.83;58.79
10716;BME280;5409;42.620;23.316;2024-02-21T09:09:36;92948.13;;;6.97;58.15
10716;BME280;5409;42.620;23.316;2024-02-21T09:12:06;92960.03;;;6.82;58.72
10716;BME280;5409;42.620;23.316;2024-02-21T09:14:37;92946.66;;;6.85;59.03
10716;BME280;5409;42.620;23.316;2024-02-21T09:17:05;92942.53;;;6.84;59.45
10716;BME280;5409;42.620;23.316;2024-02-21T09:19:30;92957.69;;;6.97;59.29
10716;BME280;5409;42.620;23.316;2024-02-21T09:21:56;92956.00;;;7.08;58.03
10716;BME280;5409;42.620;23.316;2024-02-21T09:24:21;92953.69;;;7.06;58.77
10716;BME280;5409;42.620;23.316;2024-02-21T09:26:46;92953.91;;;7.05;58.00
10716;BME280;5409;42.620;23.316;2024-02-21T09:29:12;92957.53;;;7.42;57.13
10716;BME280;5409;42.620;23.316;2024-02-21T09:31:38;92941.69;;;7.33;56.52
10716;BME280;5409;42.620;23.316;2024-02-21T09:34:04;92952.59;;;7.79;56.28
10716;BME280;5409;42.620;23.316;2024-02-21T09:36:30;92934.81;;;8.04;53.01
10716;BME280;5409;42.620;23.316;2024-02-21T09:38:55;92954.41;;;8.27;52.65
10716;BME280;5409;42.620;23.316;2024-02-21T09:41:27;92946.25;;;8.13;53.20
10716;BME280;5409;42.620;23.316;2024-02-21T09:43:53;92952.72;;;8.38;52.35
10716;BME280;5409;42.620;23.316;2024-02-21T09:46:21;92958.13;;;8.63;52.41
10716;BME280;5409;42.620;23.316;2024-02-21T09:48:57;92953.31;;;9.03;52.60
10716;BME280;5409;42.620;23.316;2024-02-21T09:51:24;92960.69;;;9.27;51.45
10716;BME280;5409;42.620;23.316;2024-02-21T09:53:53;92941.72;;;9.48;49.34
10716;BME280;5409;42.620;23.316;2024-02-21T09:56:18;92953.34;;;9.08;50.71
10716;BME280;5409;42.620;23.316;2024-02-21T09:58:44;92934.81;;;9.22;50.01
10716;BME280;5409;42.620;23.316;2024-02-21T10:01:11;92958.84;;;9.64;47.44
10716;BME280;5409;42.620;23.316;2024-02-21T10:03:37;92954.16;;;9.56;49.63
10716;BME280;5409;42.620;23.316;2024-02-21T10:06:03;92951.72;;;9.39;49.94
10716;BME280;5409;42.620;23.316;2024-02-21T10:08:29;92958.00;;;9.11;51.57
10716;BME280;5409;42.620;23.316;2024-02-21T10:10:54;92951.53;;;9.51;52.71
10716;BME280;5409;42.620;23.316;2024-02-21T10:13:28;92954.28;;;9.81;52.02
10716;BME280;5409;42.620;23.316;2024-02-21T10:16:07;92946.00;;;9.79;51.29
10716;BME280;5409;42.620;23.316;2024-02-21T10:18:35;92936.00;;;10.03;48.94
10716;BME280;5409;42.620;23.316;2024-02-21T10:21:05;92938.94;;;9.65;48.07
10716;BME280;5409;42.620;23.316;2024-02-21T10:23:44;92933.63;;;8.97;49.23
10716;BME280;5409;42.620;23.316;2024-02-21T10:26:10;92935.88;;;8.57;50.25
10716;BME280;5409;42.620;23.316;2024-02-21T10:28:37;92936.41;;;8.59;49.54
10716;BME280;5409;42.620;23.316;2024-02-21T10:31:06;92928.78;;;8.42;49.70
10716;BME280;5409;42.620;23.316;2024-02-21T10:33:32;92929.09;;;8.46;50.51
10716;BME280;5409;42.620;23.316;2024-02-21T10:36:09;92917.84;;;8.62;49.70
10716;BME280;5409;42.620;23.316;2024-02-21T10:38:39;92911.28;;;8.81;49.04
10716;BME280;5409;42.620;23.316;2024-02-21T10:41:05;92905.00;;;9.04;47.96
10716;BME280;5409;42.620;23.316;2024-02-21T10:43:39;92905.38;;;9.23;50.16
10716;BME280;5409;42.620;23.316;2024-02-21T10:46:08;92902.34;;;9.36;48.38
10716;BME280;5409;42.620;23.316;2024-02-21T10:48:44;92901.28;;;9.32;46.75
10716;BME280;5409;42.620;23.316;2024-02-21T10:51:20;92889.47;;;9.46;45.94
10716;BME280;5409;42.620;23.316;2024-02-21T10:53:55;92892.97;;;9.20;45.54
10716;BME280;5409;42.620;23.316;2024-02-21T10:56:30;92886.66;;;9.00;46.34
10716;BME280;5409;42.620;23.316;2024-02-21T10:59:00;92876.56;;;8.99;47.21
10716;BME280;5409;42.620;23.316;2024-02-21T11:01:26;92884.59;;;9.07;45.86
10716;BME280;5409;42.620;23.316;2024-02-21T11:03:53;92888.56;;;9.25;46.14
10716;BME280;5409;42.620;23.316;2024-02-21T11:06:20;92879.09;;;9.41;43.84
10716;BME280;5409;42.620;23.316;2024-02-21T11:08:47;92878.44;;;9.71;45.29
10716;BME280;5409;42.620;23.316;2024-02-21T11:11:14;92872.44;;;10.48;42.54
10716;BME280;5409;42.620;23.316;2024-02-21T11:13:46;92870.16;;;11.71;39.73
10716;BME280;5409;42.620;23.316;2024-02-21T11:16:23;92859.97;;;11.95;37.16
10716;BME280;5409;42.620;23.316;2024-02-21T11:18:49;92861.97;;;11.39;38.54
10716;BME280;5409;42.620;23.316;2024-02-21T11:21:15;92852.66;;;12.75;37.96
10716;BME280;5409;42.620;23.316;2024-02-21T11:23:40;92866.63;;;12.06;37.89
10716;BME280;5409;42.620;23.316;2024-02-21T11:26:10;92869.38;;;11.70;38.54
10716;BME280;5409;42.620;23.316;2024-02-21T11:28:36;92858.72;;;13.52;37.04
10716;BME280;5409;42.620;23.316;2024-02-21T11:31:10;92857.31;;;12.83;35.62
10716;BME280;5409;42.620;23.316;2024-02-21T11:33:42;92860.75;;;11.06;41.51
10716;BME280;5409;42.620;23.316;2024-02-21T11:36:09;92862.34;;;10.61;41.86
10716;BME280;5409;42.620;23.316;2024-02-21T11:38:34;92860.44;;;9.96;44.17
10716;BME280;5409;42.620;23.316;2024-02-21T11:41:00;92867.69;;;9.32;45.60
10716;BME280;5409;42.620;23.316;2024-02-21T11:43:25;92865.75;;;8.70;44.88
10716;BME280;5409;42.620;23.316;2024-02-21T11:45:58;92852.97;;;8.21;47.14
10716;BME280;5409;42.620;23.316;2024-02-21T11:48:24;92858.84;;;8.17;47.25
10716;BME280;5409;42.620;23.316;2024-02-21T11:50:56;92853.22;;;7.93;48.86
10716;BME280;5409;42.620;23.316;2024-02-21T11:53:22;92839.50;;;7.88;48.28
10716;BME280;5409;42.620;23.316;2024-02-21T11:55:47;92850.09;;;7.91;50.16
10716;BME280;5409;42.620;23.316;2024-02-21T11:58:13;92841.56;;;7.64;50.67
10716;BME280;5409;42.620;23.316;2024-02-21T12:00:38;92848.47;;;7.36;51.47
10716;BME280;5409;42.620;23.316;2024-02-21T12:03:05;92840.50;;;7.38;52.78
10716;BME280;5409;42.620;23.316;2024-02-21T12:05:31;92853.16;;;7.39;52.65
10716;BME280;5409;42.620;23.316;2024-02-21T12:07:57;92852.41;;;7.22;53.44
10716;BME280;5409;42.620;23.316;2024-02-21T12:10:23;92849.47;;;7.14;52.57
10716;BME280;5409;42.620;23.316;2024-02-21T12:12:51;92840.97;;;7.13;53.69
10716;BME280;5409;42.620;23.316;2024-02-21T12:15:18;92836.38;;;7.15;54.21
10716;BME280;5409;42.620;23.316;2024-02-21T12:17:44;92839.13;;;7.30;53.54
10716;BME280;5409;42.620;23.316;2024-02-21T12:20:10;92839.06;;;7.25;53.15
10716;BME280;5409;42.620;23.316;2024-02-21T12:22:39;92835.94;;;7.23;52.86
10716;BME280;5409;42.620;23.316;2024-02-21T12:25:21;92824.06;;;7.01;53.72
10716;BME280;5409;42.620;23.316;2024-02-21T12:27:51;92834.38;;;7.01;53.87
10716;BME280;5409;42.620;23.316;2024-02-21T12:30:17;92823.56;;;6.82;53.03
10716;BME280;5409;42.620;23.316;2024-02-21T12:32:43;92836.97;;;6.84;54.60
10716;BME280;5409;42.620;23.316;2024-02-21T12:35:08;92823.81;;;6.80;55.38
10716;BME280;5409;42.620;23.316;2024-02-21T12:37:34;92829.25;;;6.84;55.97
10716;BME280;5409;42.620;23.316;2024-02-21T12:39:59;92831.16;;;6.72;56.53
10716;BME280;5409;42.620;23.316;2024-02-21T12:42:25;92828.59;;;6.72;56.56
10716;BME280;5409;42.620;23.316;2024-02-21T12:44:51;92824.75;;;6.74;56.88
10716;BME280;5409;42.620;23.316;2024-02-21T12:47:18;92813.94;;;6.72;56.98
10716;BME280;5409;42.620;23.316;2024-02-21T12:49:45;92821.59;;;6.89;57.00
10716;BME280;5409;42.620;23.316;2024-02-21T12:52:10;92824.31;;;6.99;57.33
10716;BME280;5409;42.620;23.316;2024-02-21T12:54:36;92807.59;;;6.80;57.07
10716;BME280;5409;42.620;23.316;2024-02-21T12:57:01;92814.16;;;6.92;56.59
10716;BME280;5409;42.620;23.316;2024-02-21T12:59:28;92797.25;;;6.96;56.34
10716;BME280;5409;42.620;23.316;2024-02-21T13:01:54;92812.63;;;7.13;55.04
10716;BME280;5409;42.620;23.316;2024-02-21T13:04:19;92806.41;;;7.09;53.35